sensor_id;sensor_type;location;lat;lon;timestamp;temperature;humidity
7248;DHT22;3665;51.034;13.642;2023-04-25T00:08:15;7.40;1.00
7248;DHT22;3665;51.034;13.642;2023-04-25T00:13:18;7.50;1.00
7248;DHT22;3665;51.034;13.642;2023-04-25T00:18:05;7.60;1.00
7248;DHT22;3665;51.034;13.642;2023-04-25T00:22:52;7.60;1.00
7248;DHT22;3665;51.034;13.642;2023-04-25T00:27:39;7.50;1.00
7248;DHT22;3665;51.034;13.642;2023-04-25T00:32:31;7.30;1.00
7248;DHT22;3665;51.034;13.642;2023-04-25T00:37:15;7.30;1.00
7248;DHT22;3665;51.034;13.642;2023-04-25T00:42:04;7.00;1.00
7248;DHT22;3665;51.034;13.642;2023-04-25T00:46:52;6.90;1.00
7248;DHT22;3665;51.034;13.642;2023-04-25T00:51:40;6.90;1.00
7248;DHT22;3665;51.034;13.642;2023-04-25T00:56:35;6.60;1.00
7248;DHT22;3665;51.034;13.642;2023-04-25T01:01:31;6.60;1.00
7248;DHT22;3665;51.034;13.642;2023-04-25T01:06:44;6.50;1.00
7248;DHT22;3665;51.034;13.642;2023-04-25T01:11:40;6.40;1.00
7248;DHT22;3665;51.034;13.642;2023-04-25T01:16:28;6.30;1.00
7248;DHT22;3665;51.034;13.642;2023-04-25T01:21:18;6.30;1.00
7248;DHT22;3665;51.034;13.642;2023-04-25T01:26:03;6.20;1.00
7248;DHT22;3665;51.034;13.642;2023-04-25T01:30:53;6.20;1.00
7248;DHT22;3665;51.034;13.642;2023-04-25T01:35:41;6.10;1.00
7248;DHT22;3665;51.034;13.642;2023-04-25T01:40:45;5.90;1.00
7248;DHT22;3665;51.034;13.642;2023-04-25T01:45:32;5.80;1.00
7248;DHT22;3665;51.034;13.642;2023-04-25T01:50:19;5.70;1.00
7248;DHT22;3665;51.034;13.642;2023-04-25T01:55:07;5.70;1.00
7248;DHT22;3665;51.034;13.642;2023-04-25T01:59:59;5.60;1.00
7248;DHT22;3665;51.034;13.642;2023-04-25T02:05:00;5.50;1.00
7248;DHT22;3665;51.034;13.642;2023-04-25T02:10:11;5.50;1.00
7248;DHT22;3665;51.034;13.642;2023-04-25T02:15:43;5.10;1.00
7248;DHT22;3665;51.034;13.642;2023-04-25T02:21:02;5.00;1.00
7248;DHT22;3665;51.034;13.642;2023-04-25T02:25:48;5.10;1.00
7248;DHT22;3665;51.034;13.642;2023-04-25T02:30:59;5.00;1.00
7248;DHT22;3665;51.034;13.642;2023-04-25T02:48:45;4.80;1.00
7248;DHT22;3665;51.034;13.642;2023-04-25T02:53:31;4.80;1.00
7248;DHT22;3665;51.034;13.642;2023-04-25T02:58:24;4.80;1.00
7248;DHT22;3665;51.034;13.642;2023-04-25T03:03:08;4.70;1.00
7248;DHT22;3665;51.034;13.642;2023-04-25T03:07:57;4.70;1.00
7248;DHT22;3665;51.034;13.642;2023-04-25T03:12:43;4.70;1.00
7248;DHT22;3665;51.034;13.642;2023-04-25T03:17:33;4.60;1.00
7248;DHT22;3665;51.034;13.642;2023-04-25T03:22:37;4.40;1.00
7248;DHT22;3665;51.034;13.642;2023-04-25T03:27:26;4.20;1.00
7248;DHT22;3665;51.034;13.642;2023-04-25T03:32:13;4.20;1.70
7248;DHT22;3665;51.034;13.642;2023-04-25T03:37:00;4.20;1.00
7248;DHT22;3665;51.034;13.642;2023-04-25T03:41:48;4.00;55.40
7248;DHT22;3665;51.034;13.642;2023-04-25T03:46:36;3.90;99.90
7248;DHT22;3665;51.034;13.642;2023-04-25T03:51:45;3.70;93.90
7248;DHT22;3665;51.034;13.642;2023-04-25T03:56:43;3.60;99.90
7248;DHT22;3665;51.034;13.642;2023-04-25T04:01:33;3.70;1.00
7248;DHT22;3665;51.034;13.642;2023-04-25T04:06:20;3.80;1.00
7248;DHT22;3665;51.034;13.642;2023-04-25T04:11:23;3.80;99.90
7248;DHT22;3665;51.034;13.642;2023-04-25T04:16:31;4.00;99.90
7248;DHT22;3665;51.034;13.642;2023-04-25T04:21:16;4.20;99.90
7248;DHT22;3665;51.034;13.642;2023-04-25T04:26:10;4.40;99.90
7248;DHT22;3665;51.034;13.642;2023-04-25T04:31:26;4.70;1.00
7248;DHT22;3665;51.034;13.642;2023-04-25T04:36:13;4.70;1.00
7248;DHT22;3665;51.034;13.642;2023-04-25T04:40:59;5.00;1.00
7248;DHT22;3665;51.034;13.642;2023-04-25T04:46:13;5.10;1.00
7248;DHT22;3665;51.034;13.642;2023-04-25T04:51:39;5.30;1.00
7248;DHT22;3665;51.034;13.642;2023-04-25T04:56:45;5.50;1.00
7248;DHT22;3665;51.034;13.642;2023-04-25T05:01:41;5.70;1.00
7248;DHT22;3665;51.034;13.642;2023-04-25T05:07:09;5.80;1.00
7248;DHT22;3665;51.034;13.642;2023-04-25T05:12:20;6.10;1.00
7248;DHT22;3665;51.034;13.642;2023-04-25T05:17:25;6.30;1.00
7248;DHT22;3665;51.034;13.642;2023-04-25T05:22:43;6.60;1.00
7248;DHT22;3665;51.034;13.642;2023-04-25T05:27:47;7.00;1.00
7248;DHT22;3665;51.034;13.642;2023-04-25T05:33:01;7.10;1.00
7248;DHT22;3665;51.034;13.642;2023-04-25T05:37:48;7.40;1.00
7248;DHT22;3665;51.034;13.642;2023-04-25T05:42:45;7.40;1.00
7248;DHT22;3665;51.034;13.642;2023-04-25T05:48:13;7.70;1.00
7248;DHT22;3665;51.034;13.642;2023-04-25T05:53:23;8.00;1.00
7248;DHT22;3665;51.034;13.642;2023-04-25T05:58:19;7.60;1.00
7248;DHT22;3665;51.034;13.642;2023-04-25T06:03:26;7.60;1.00
7248;DHT22;3665;51.034;13.642;2023-04-25T06:08:12;7.90;1.00
7248;DHT22;3665;51.034;13.642;2023-04-25T06:13:01;8.20;1.00
7248;DHT22;3665;51.034;13.642;2023-04-25T06:17:48;8.30;1.00
7248;DHT22;3665;51.034;13.642;2023-04-25T06:22:51;8.30;1.00
7248;DHT22;3665;51.034;13.642;2023-04-25T06:27:56;8.50;1.00
7248;DHT22;3665;51.034;13.642;2023-04-25T06:32:45;8.70;1.00
7248;DHT22;3665;51.034;13.642;2023-04-25T06:37:32;9.00;1.00
7248;DHT22;3665;51.034;13.642;2023-04-25T06:42:40;9.20;1.00
7248;DHT22;3665;51.034;13.642;2023-04-25T06:47:57;9.20;1.00
7248;DHT22;3665;51.034;13.642;2023-04-25T06:52:43;9.20;1.00
7248;DHT22;3665;51.034;13.642;2023-04-25T06:57:33;9.20;1.00
7248;DHT22;3665;51.034;13.642;2023-04-25T07:02:37;9.30;1.00
7248;DHT22;3665;51.034;13.642;2023-04-25T07:07:24;9.30;1.00
7248;DHT22;3665;51.034;13.642;2023-04-25T07:12:11;9.50;1.00
7248;DHT22;3665;51.034;13.642;2023-04-25T07:16:59;9.70;1.00
7248;DHT22;3665;51.034;13.642;2023-04-25T07:21:48;9.60;1.00
7248;DHT22;3665;51.034;13.642;2023-04-25T07:26:35;9.90;1.00
7248;DHT22;3665;51.034;13.642;2023-04-25T07:31:49;10.30;1.00
7248;DHT22;3665;51.034;13.642;2023-04-25T07:36:47;10.80;1.00
7248;DHT22;3665;51.034;13.642;2023-04-25T07:41:34;10.70;1.00
7248;DHT22;3665;51.034;13.642;2023-04-25T07:46:19;11.10;1.00
7248;DHT22;3665;51.034;13.642;2023-04-25T07:51:12;11.70;1.00
7248;DHT22;3665;51.034;13.642;2023-04-25T07:55:57;11.50;1.00
7248;DHT22;3665;51.034;13.642;2023-04-25T08:00:45;11.00;1.00
7248;DHT22;3665;51.034;13.642;2023-04-25T08:06:03;11.50;1.00
7248;DHT22;3665;51.034;13.642;2023-04-25T08:11:10;11.70;1.00
7248;DHT22;3665;51.034;13.642;2023-04-25T08:15:55;12.10;1.00
7248;DHT22;3665;51.034;13.642;2023-04-25T08:20:45;12.00;1.00
7248;DHT22;3665;51.034;13.642;2023-04-25T08:25:32;11.80;1.00
7248;DHT22;3665;51.034;13.642;2023-04-25T08:30:35;12.20;1.00
7248;DHT22;3665;51.034;13.642;2023-04-25T08:35:42;11.60;1.00
7248;DHT22;3665;51.034;13.642;2023-04-25T08:40:30;11.30;1.00
7248;DHT22;3665;51.034;13.642;2023-04-25T08:45:33;11.10;1.00
7248;DHT22;3665;51.034;13.642;2023-04-25T08:50:22;10.80;1.00
7248;DHT22;3665;51.034;13.642;2023-04-25T08:55:11;10.80;1.00
7248;DHT22;3665;51.034;13.642;2023-04-25T08:59:57;10.80;1.00
7248;DHT22;3665;51.034;13.642;2023-04-25T09:04:47;11.00;1.00
7248;DHT22;3665;51.034;13.642;2023-04-25T09:09:32;10.80;1.00
7248;DHT22;3665;51.034;13.642;2023-04-25T09:14:22;10.50;1.00
7248;DHT22;3665;51.034;13.642;2023-04-25T09:19:24;10.70;1.00
7248;DHT22;3665;51.034;13.642;2023-04-25T09:24:37;10.70;1.00
7248;DHT22;3665;51.034;13.642;2023-04-25T09:29:32;10.70;1.00
7248;DHT22;3665;51.034;13.642;2023-04-25T09:34:39;10.20;1.00
7248;DHT22;3665;51.034;13.642;2023-04-25T09:39:28;9.70;1.00
7248;DHT22;3665;51.034;13.642;2023-04-25T09:44:29;9.40;1.00
7248;DHT22;3665;51.034;13.642;2023-04-25T09:49:20;9.30;1.00
7248;DHT22;3665;51.034;13.642;2023-04-25T09:54:36;9.70;1.00
7248;DHT22;3665;51.034;13.642;2023-04-25T09:59:43;10.20;1.00
7248;DHT22;3665;51.034;13.642;2023-04-25T10:04:28;10.90;1.00
7248;DHT22;3665;51.034;13.642;2023-04-25T10:09:37;11.30;1.00
7248;DHT22;3665;51.034;13.642;2023-04-25T10:14:21;10.90;1.00
7248;DHT22;3665;51.034;13.642;2023-04-25T10:19:11;10.90;1.00
7248;DHT22;3665;51.034;13.642;2023-04-25T10:23:55;11.20;1.00
7248;DHT22;3665;51.034;13.642;2023-04-25T10:28:59;11.30;1.00
7248;DHT22;3665;51.034;13.642;2023-04-25T10:33:49;12.10;1.00
7248;DHT22;3665;51.034;13.642;2023-04-25T10:38:36;12.20;1.00
7248;DHT22;3665;51.034;13.642;2023-04-25T10:43:41;11.50;1.00
7248;DHT22;3665;51.034;13.642;2023-04-25T10:48:30;11.30;1.00
7248;DHT22;3665;51.034;13.642;2023-04-25T10:53:17;10.70;1.00
7248;DHT22;3665;51.034;13.642;2023-04-25T10:58:07;10.10;1.00
7248;DHT22;3665;51.034;13.642;2023-04-25T11:02:58;9.50;1.00
7248;DHT22;3665;51.034;13.642;2023-04-25T11:07:59;9.30;1.00
7248;DHT22;3665;51.034;13.642;2023-04-25T11:12:52;9.60;1.00
7248;DHT22;3665;51.034;13.642;2023-04-25T11:17:51;9.60;1.00
7248;DHT22;3665;51.034;13.642;2023-04-25T11:22:35;10.00;1.00
7248;DHT22;3665;51.034;13.642;2023-04-25T11:27:27;9.80;1.00
7248;DHT22;3665;51.034;13.642;2023-04-25T11:32:11;10.40;1.00
7248;DHT22;3665;51.034;13.642;2023-04-25T11:37:02;10.70;1.00
7248;DHT22;3665;51.034;13.642;2023-04-25T11:41:47;10.80;1.00
7248;DHT22;3665;51.034;13.642;2023-04-25T11:46:40;10.70;1.00
7248;DHT22;3665;51.034;13.642;2023-04-25T11:51:24;10.50;1.00
7248;DHT22;3665;51.034;13.642;2023-04-25T11:56:30;10.80;1.00
7248;DHT22;3665;51.034;13.642;2023-04-25T12:01:32;10.60;1.00
7248;DHT22;3665;51.034;13.642;2023-04-25T12:06:25;10.50;1.00
7248;DHT22;3665;51.034;13.642;2023-04-25T12:11:24;10.40;1.00
7248;DHT22;3665;51.034;13.642;2023-04-25T12:16:11;9.90;1.00
7248;DHT22;3665;51.034;13.642;2023-04-25T12:21:02;9.80;1.00
7248;DHT22;3665;51.034;13.642;2023-04-25T12:25:47;9.80;1.00
7248;DHT22;3665;51.034;13.642;2023-04-25T12:30:59;10.10;1.00
7248;DHT22;3665;51.034;13.642;2023-04-25T12:35:58;10.50;1.00
7248;DHT22;3665;51.034;13.642;2023-04-25T12:40:45;11.10;1.00
7248;DHT22;3665;51.034;13.642;2023-04-25T12:45:33;11.20;1.00
7248;DHT22;3665;51.034;13.642;2023-04-25T12:50:44;11.00;1.00
7248;DHT22;3665;51.034;13.642;2023-04-25T12:55:40;11.20;1.00
7248;DHT22;3665;51.034;13.642;2023-04-25T13:00:26;11.10;1.00
7248;DHT22;3665;51.034;13.642;2023-04-25T13:05:15;10.40;1.00
7248;DHT22;3665;51.034;13.642;2023-04-25T13:10:10;10.40;1.00
7248;DHT22;3665;51.034;13.642;2023-04-25T13:15:12;10.10;1.00
7248;DHT22;3665;51.034;13.642;2023-04-25T13:19:57;9.70;1.00
7248;DHT22;3665;51.034;13.642;2023-04-25T13:24:43;9.30;1.00
7248;DHT22;3665;51.034;13.642;2023-04-25T13:29:34;8.90;1.00
7248;DHT22;3665;51.034;13.642;2023-04-25T13:34:20;8.60;1.00
7248;DHT22;3665;51.034;13.642;2023-04-25T13:39:07;8.20;1.00
7248;DHT22;3665;51.034;13.642;2023-04-25T13:44:00;8.10;1.00
7248;DHT22;3665;51.034;13.642;2023-04-25T13:48:46;8.20;1.00
7248;DHT22;3665;51.034;13.642;2023-04-25T13:53:33;8.30;1.00
7248;DHT22;3665;51.034;13.642;2023-04-25T13:58:19;8.30;1.00
7248;DHT22;3665;51.034;13.642;2023-04-25T14:03:12;8.30;1.00
7248;DHT22;3665;51.034;13.642;2023-04-25T14:07:58;8.40;1.00
7248;DHT22;3665;51.034;13.642;2023-04-25T14:12:43;8.50;1.00
7248;DHT22;3665;51.034;13.642;2023-04-25T14:17:36;8.60;1.00
7248;DHT22;3665;51.034;13.642;2023-04-25T14:22:19;9.00;1.00
7248;DHT22;3665;51.034;13.642;2023-04-25T14:27:09;9.60;1.00
7248;DHT22;3665;51.034;13.642;2023-04-25T14:31:58;10.00;1.00
7248;DHT22;3665;51.034;13.642;2023-04-25T14:36:43;10.10;1.00
7248;DHT22;3665;51.034;13.642;2023-04-25T14:41:36;10.50;1.00
7248;DHT22;3665;51.034;13.642;2023-04-25T14:46:21;11.20;1.00
7248;DHT22;3665;51.034;13.642;2023-04-25T14:51:09;10.90;1.00
7248;DHT22;3665;51.034;13.642;2023-04-25T14:55:56;10.30;1.00
7248;DHT22;3665;51.034;13.642;2023-04-25T15:00:44;9.70;1.00
7248;DHT22;3665;51.034;13.642;2023-04-25T15:05:53;10.20;1.00
7248;DHT22;3665;51.034;13.642;2023-04-25T15:10:40;10.10;1.00
7248;DHT22;3665;51.034;13.642;2023-04-25T15:15:24;9.90;1.00
7248;DHT22;3665;51.034;13.642;2023-04-25T15:20:13;9.60;1.00
7248;DHT22;3665;51.034;13.642;2023-04-25T15:25:02;9.30;1.00
7248;DHT22;3665;51.034;13.642;2023-04-25T15:29:49;8.80;1.00
7248;DHT22;3665;51.034;13.642;2023-04-25T15:34:36;8.50;1.00
7248;DHT22;3665;51.034;13.642;2023-04-25T15:39:26;8.40;1.00
7248;DHT22;3665;51.034;13.642;2023-04-25T15:44:15;8.20;1.00
7248;DHT22;3665;51.034;13.642;2023-04-25T15:49:01;8.20;1.00
7248;DHT22;3665;51.034;13.642;2023-04-25T15:53:47;8.10;1.00
7248;DHT22;3665;51.034;13.642;2023-04-25T15:58:40;8.10;1.00
7248;DHT22;3665;51.034;13.642;2023-04-25T16:03:25;8.20;1.00
7248;DHT22;3665;51.034;13.642;2023-04-25T16:08:12;8.20;1.00
7248;DHT22;3665;51.034;13.642;2023-04-25T16:12:59;8.30;1.00
7248;DHT22;3665;51.034;13.642;2023-04-25T16:17:51;8.60;1.00
7248;DHT22;3665;51.034;13.642;2023-04-25T16:22:38;8.80;1.00
7248;DHT22;3665;51.034;13.642;2023-04-25T16:27:26;9.10;1.00
7248;DHT22;3665;51.034;13.642;2023-04-25T16:32:30;9.20;1.00
7248;DHT22;3665;51.034;13.642;2023-04-25T16:37:15;9.00;1.00
7248;DHT22;3665;51.034;13.642;2023-04-25T16:42:03;9.30;1.00
7248;DHT22;3665;51.034;13.642;2023-04-25T16:46:51;9.50;1.00
7248;DHT22;3665;51.034;13.642;2023-04-25T16:51:41;9.10;1.00
7248;DHT22;3665;51.034;13.642;2023-04-25T16:56:30;8.60;1.00
7248;DHT22;3665;51.034;13.642;2023-04-25T17:01:33;8.20;1.00
7248;DHT22;3665;51.034;13.642;2023-04-25T17:06:20;8.10;1.00
7248;DHT22;3665;51.034;13.642;2023-04-25T17:11:07;7.90;1.00
7248;DHT22;3665;51.034;13.642;2023-04-25T17:15:55;7.90;1.00
7248;DHT22;3665;51.034;13.642;2023-04-25T17:20:51;7.90;1.00
7248;DHT22;3665;51.034;13.642;2023-04-25T17:25:47;7.80;1.00
7248;DHT22;3665;51.034;13.642;2023-04-25T17:30:40;7.90;1.00
7248;DHT22;3665;51.034;13.642;2023-04-25T17:35:32;7.70;1.00
7248;DHT22;3665;51.034;13.642;2023-04-25T17:40:30;7.50;1.00
7248;DHT22;3665;51.034;13.642;2023-04-25T17:45:17;7.20;1.00
7248;DHT22;3665;51.034;13.642;2023-04-25T17:50:05;7.10;1.00
7248;DHT22;3665;51.034;13.642;2023-04-25T17:54:51;6.80;1.00
7248;DHT22;3665;51.034;13.642;2023-04-25T18:05:02;6.60;1.00
7248;DHT22;3665;51.034;13.642;2023-04-25T18:10:04;6.50;1.00
7248;DHT22;3665;51.034;13.642;2023-04-25T18:14:51;6.50;1.00
7248;DHT22;3665;51.034;13.642;2023-04-25T18:25:04;6.40;1.00
7248;DHT22;3665;51.034;13.642;2023-04-25T18:30:23;6.30;1.00
7248;DHT22;3665;51.034;13.642;2023-04-25T18:35:08;6.20;1.00
7248;DHT22;3665;51.034;13.642;2023-04-25T18:39:58;6.20;1.00
7248;DHT22;3665;51.034;13.642;2023-04-25T18:45:02;6.20;1.00
7248;DHT22;3665;51.034;13.642;2023-04-25T18:50:04;6.10;1.00
7248;DHT22;3665;51.034;13.642;2023-04-25T18:54:52;5.80;1.00
7248;DHT22;3665;51.034;13.642;2023-04-25T18:59:41;5.60;1.00
7248;DHT22;3665;51.034;13.642;2023-04-25T19:04:31;5.40;1.00
7248;DHT22;3665;51.034;13.642;2023-04-25T19:10:04;5.10;1.00
7248;DHT22;3665;51.034;13.642;2023-04-25T19:14:52;5.00;1.00
7248;DHT22;3665;51.034;13.642;2023-04-25T19:20:11;5.00;1.00
7248;DHT22;3665;51.034;13.642;2023-04-25T19:25:37;4.80;1.00
7248;DHT22;3665;51.034;13.642;2023-04-25T19:30:56;4.70;1.00
7248;DHT22;3665;51.034;13.642;2023-04-25T19:35:57;4.50;1.00
7248;DHT22;3665;51.034;13.642;2023-04-25T19:40:44;4.40;1.00
7248;DHT22;3665;51.034;13.642;2023-04-25T19:45:33;4.40;1.00
7248;DHT22;3665;51.034;13.642;2023-04-25T19:50:19;4.30;1.00
7248;DHT22;3665;51.034;13.642;2023-04-25T19:55:30;4.10;1.00
7248;DHT22;3665;51.034;13.642;2023-04-25T20:00:16;4.00;1.00
7248;DHT22;3665;51.034;13.642;2023-04-25T20:05:03;4.00;1.00
7248;DHT22;3665;51.034;13.642;2023-04-25T20:09:47;3.80;1.00
7248;DHT22;3665;51.034;13.642;2023-04-25T20:14:42;3.60;1.00
7248;DHT22;3665;51.034;13.642;2023-04-25T20:19:41;3.60;1.00
7248;DHT22;3665;51.034;13.642;2023-04-25T20:24:46;3.50;1.00
7248;DHT22;3665;51.034;13.642;2023-04-25T20:29:33;3.50;1.00
7248;DHT22;3665;51.034;13.642;2023-04-25T20:34:21;3.60;1.00
7248;DHT22;3665;51.034;13.642;2023-04-25T20:39:07;3.80;1.00
7248;DHT22;3665;51.034;13.642;2023-04-25T20:43:59;4.00;1.00
7248;DHT22;3665;51.034;13.642;2023-04-25T20:48:44;4.20;1.00
7248;DHT22;3665;51.034;13.642;2023-04-25T20:53:50;4.30;1.00
7248;DHT22;3665;51.034;13.642;2023-04-25T20:58:38;4.30;1.00
7248;DHT22;3665;51.034;13.642;2023-04-25T21:03:25;4.60;1.00
7248;DHT22;3665;51.034;13.642;2023-04-25T21:08:12;4.50;1.00
7248;DHT22;3665;51.034;13.642;2023-04-25T21:13:03;4.60;1.00
7248;DHT22;3665;51.034;13.642;2023-04-25T21:17:49;4.60;1.00
7248;DHT22;3665;51.034;13.642;2023-04-25T21:22:37;4.60;1.00
7248;DHT22;3665;51.034;13.642;2023-04-25T21:28:00;4.50;1.00
7248;DHT22;3665;51.034;13.642;2023-04-25T21:33:02;4.50;1.00
7248;DHT22;3665;51.034;13.642;2023-04-25T21:37:48;4.50;1.00
7248;DHT22;3665;51.034;13.642;2023-04-25T21:42:43;4.70;1.00
7248;DHT22;3665;51.034;13.642;2023-04-25T21:47:39;4.80;1.00
7248;DHT22;3665;51.034;13.642;2023-04-25T21:52:30;5.00;1.00
7248;DHT22;3665;51.034;13.642;2023-04-25T21:57:18;5.20;1.00
7248;DHT22;3665;51.034;13.642;2023-04-25T22:02:03;5.10;1.00
7248;DHT22;3665;51.034;13.642;2023-04-25T22:06:52;5.20;1.00
7248;DHT22;3665;51.034;13.642;2023-04-25T22:11:42;5.10;1.00
7248;DHT22;3665;51.034;13.642;2023-04-25T22:16:31;5.30;1.00
7248;DHT22;3665;51.034;13.642;2023-04-25T22:21:16;5.30;1.00
7248;DHT22;3665;51.034;13.642;2023-04-25T22:26:03;5.30;1.00
7248;DHT22;3665;51.034;13.642;2023-04-25T22:30:54;5.10;1.00
7248;DHT22;3665;51.034;13.642;2023-04-25T22:35:47;4.80;1.00
7248;DHT22;3665;51.034;13.642;2023-04-25T22:41:04;4.60;1.00
7248;DHT22;3665;51.034;13.642;2023-04-25T22:45:48;4.50;1.00
7248;DHT22;3665;51.034;13.642;2023-04-25T22:56:21;4.30;1.00
7248;DHT22;3665;51.034;13.642;2023-04-25T23:09:06;4.00;1.00
7248;DHT22;3665;51.034;13.642;2023-04-25T23:20:31;4.00;1.00
7248;DHT22;3665;51.034;13.642;2023-04-25T23:25:38;4.20;1.00
7248;DHT22;3665;51.034;13.642;2023-04-25T23:30:35;4.30;1.00
7248;DHT22;3665;51.034;13.642;2023-04-25T23:35:42;4.30;1.00
7248;DHT22;3665;51.034;13.642;2023-04-25T23:40:53;4.30;1.00
7248;DHT22;3665;51.034;13.642;2023-04-25T23:46:40;4.40;1.00
7248;DHT22;3665;51.034;13.642;2023-04-25T23:51:29;4.50;1.00
